createdAt,value
2023-03-25T00:01:19.789Z,5.10
2023-03-25T00:03:50.924Z,1.13
2023-03-25T00:06:18.536Z,2.78
2023-03-25T00:08:45.695Z,2.55
2023-03-25T00:11:12.966Z,1.38
2023-03-25T00:13:40.887Z,2.45
2023-03-25T00:16:10.460Z,1.48
2023-03-25T00:18:37.907Z,0.75
2023-03-25T00:21:07.537Z,1.00
2023-03-25T00:23:34.601Z,0.98
2023-03-25T00:26:01.679Z,1.60
2023-03-25T00:28:33.576Z,2.50
2023-03-25T00:31:13.561Z,1.35
2023-03-25T00:33:42.075Z,1.85
2023-03-25T00:36:09.924Z,2.67
2023-03-25T00:38:38.221Z,2.20
2023-03-25T00:41:17.820Z,0.80
2023-03-25T00:43:45.869Z,0.93
2023-03-25T00:46:13.086Z,3.65
2023-03-25T00:48:40.254Z,1.83
2023-03-25T00:51:10.232Z,1.23
2023-03-25T00:53:38.379Z,2.75
2023-03-25T00:56:06.045Z,4.18
2023-03-25T00:58:33.282Z,2.33
2023-03-25T01:01:01.022Z,4.68
2023-03-25T01:03:29.315Z,4.30
2023-03-25T01:05:58.133Z,5.20
2023-03-25T01:08:25.769Z,3.40
2023-03-25T01:10:54.550Z,2.75
2023-03-25T01:13:22.785Z,8.18
2023-03-25T01:15:50.378Z,3.55
2023-03-25T01:18:18.284Z,5.43
2023-03-25T01:20:45.742Z,4.20
2023-03-25T01:23:13.073Z,3.17
2023-03-25T01:25:40.666Z,1.85
2023-03-25T01:28:07.755Z,2.88
2023-03-25T01:30:34.827Z,3.85
2023-03-25T01:33:01.979Z,2.85
2023-03-25T01:35:29.115Z,3.08
2023-03-25T01:37:56.380Z,1.15
2023-03-25T01:40:24.452Z,6.40
2023-03-25T01:42:52.044Z,2.90
2023-03-25T01:45:19.546Z,2.35
2023-03-25T01:47:49.666Z,5.00
2023-03-25T01:50:17.549Z,1.13
2023-03-25T01:52:52.334Z,2.22
2023-03-25T01:55:20.517Z,2.00
2023-03-25T01:57:48.703Z,3.08
2023-03-25T02:00:16.677Z,1.23
2023-03-25T02:02:46.006Z,3.85
2023-03-25T02:05:21.744Z,1.42
2023-03-25T02:07:49.980Z,3.65
2023-03-25T02:10:18.343Z,1.55
2023-03-25T02:12:47.301Z,3.42
2023-03-25T02:15:18.079Z,4.85
2023-03-25T02:18:07.318Z,3.47
2023-03-25T02:20:37.467Z,2.67
2023-03-25T02:23:34.704Z,1.80
2023-03-25T02:26:32.622Z,4.72
2023-03-25T02:29:43.143Z,1.90
2023-03-25T02:32:25.559Z,7.07
2023-03-25T02:35:02.709Z,4.90
2023-03-25T02:37:46.931Z,2.95
2023-03-25T02:40:21.089Z,1.77
2023-03-25T02:45:21.187Z,1.35
2023-03-25T02:47:55.019Z,2.45
2023-03-25T02:50:30.403Z,1.45
2023-03-25T02:53:04.599Z,8.75
2023-03-25T02:55:33.677Z,4.10
2023-03-25T02:58:04.555Z,4.78
2023-03-25T03:00:32.978Z,6.10
2023-03-25T03:03:04.807Z,6.55
2023-03-25T03:05:49.035Z,4.78
2023-03-25T03:08:31.553Z,2.85
2023-03-25T03:11:14.664Z,5.05
2023-03-25T03:14:14.202Z,3.80
2023-03-25T03:16:58.680Z,3.00
2023-03-25T03:22:14.622Z,3.15
2023-03-25T03:25:24.899Z,3.03
2023-03-25T03:28:01.699Z,4.45
2023-03-25T03:30:52.176Z,2.53
2023-03-25T03:33:25.661Z,2.08
2023-03-25T03:36:02.403Z,2.55
2023-03-25T03:38:53.608Z,3.03
2023-03-25T03:41:24.251Z,1.85
2023-03-25T03:44:22.510Z,2.53
2023-03-25T03:47:04.982Z,4.20
2023-03-25T03:49:45.511Z,3.55
2023-03-25T03:52:17.940Z,4.13
2023-03-25T03:55:00.870Z,2.95
2023-03-25T03:57:33.564Z,5.28
2023-03-25T04:00:14.226Z,1.52
2023-03-25T04:02:47.973Z,4.57
2023-03-25T04:05:18.218Z,2.40
2023-03-25T04:07:55.169Z,2.78
2023-03-25T04:10:29.944Z,3.25
2023-03-25T04:13:02.691Z,4.15
2023-03-25T04:15:30.092Z,3.58
2023-03-25T04:17:57.715Z,3.30
2023-03-25T04:20:29.975Z,2.60
2023-03-25T04:22:57.148Z,2.75
2023-03-25T04:25:25.456Z,4.25
2023-03-25T04:27:59.200Z,3.05
2023-03-25T04:30:29.086Z,1.92
2023-03-25T04:32:57.324Z,7.80
2023-03-25T04:35:26.124Z,3.28
2023-03-25T04:37:57.659Z,6.97
2023-03-25T04:40:26.040Z,3.70
2023-03-25T04:42:53.454Z,1.63
2023-03-25T04:45:21.758Z,6.05
2023-03-25T04:47:50.158Z,1.77
2023-03-25T04:50:23.665Z,3.22
2023-03-25T04:52:53.271Z,2.95
2023-03-25T04:55:22.049Z,3.50
2023-03-25T04:57:51.144Z,3.70
2023-03-25T05:00:20.888Z,1.27
2023-03-25T05:02:50.281Z,3.85
2023-03-25T05:05:19.736Z,3.70
2023-03-25T05:07:49.625Z,3.35
2023-03-25T05:10:18.589Z,4.22
2023-03-25T05:12:45.735Z,2.08
2023-03-25T05:15:13.824Z,2.65
2023-03-25T05:17:41.452Z,2.83
2023-03-25T05:20:11.649Z,3.58
2023-03-25T05:22:39.242Z,7.10
2023-03-25T05:25:07.614Z,6.30
2023-03-25T05:27:35.628Z,3.08
2023-03-25T05:30:03.783Z,3.42
2023-03-25T05:32:33.591Z,2.47
2023-03-25T05:35:02.285Z,3.25
2023-03-25T05:37:30.042Z,2.90
2023-03-25T05:39:57.190Z,3.85
2023-03-25T05:42:24.494Z,4.45
2023-03-25T05:44:52.974Z,2.08
2023-03-25T05:47:25.072Z,1.02
2023-03-25T05:49:54.134Z,2.80
2023-03-25T05:52:24.840Z,5.88
2023-03-25T05:54:52.176Z,2.03
2023-03-25T05:57:19.544Z,4.10
2023-03-25T05:59:48.136Z,2.50
2023-03-25T06:02:17.384Z,4.70
2023-03-25T06:04:46.740Z,3.85
2023-03-25T06:07:20.211Z,3.03
2023-03-25T06:09:48.606Z,6.00
2023-03-25T06:12:18.064Z,1.50
2023-03-25T06:14:45.937Z,6.18
2023-03-25T06:17:19.112Z,4.95
2023-03-25T06:19:47.266Z,4.63
2023-03-25T06:22:14.511Z,5.45
2023-03-25T06:24:42.918Z,7.47
2023-03-25T06:27:14.731Z,2.58
2023-03-25T06:29:42.597Z,7.20
2023-03-25T06:32:12.496Z,6.70
2023-03-25T06:34:42.989Z,1.80
2023-03-25T06:37:11.584Z,3.10
2023-03-25T06:39:38.906Z,4.30
2023-03-25T06:42:07.616Z,4.00
2023-03-25T06:44:34.861Z,4.38
2023-03-25T06:47:04.733Z,2.90
2023-03-25T06:49:32.007Z,2.90
2023-03-25T06:51:59.245Z,4.78
2023-03-25T06:54:26.845Z,7.80
2023-03-25T06:56:54.851Z,2.72
2023-03-25T06:59:22.282Z,3.58
2023-03-25T07:01:49.601Z,5.00
2023-03-25T07:04:19.164Z,4.47
2023-03-25T07:06:47.073Z,4.47
2023-03-25T07:09:14.321Z,2.30
2023-03-25T07:11:41.696Z,4.40
2023-03-25T07:14:09.058Z,3.90
2023-03-25T07:16:36.683Z,4.15
2023-03-25T07:19:04.080Z,3.42
2023-03-25T07:21:31.568Z,2.42
2023-03-25T07:23:58.834Z,4.45
2023-03-25T07:26:26.327Z,5.03
2023-03-25T07:28:53.870Z,4.97
2023-03-25T07:31:21.154Z,5.40
2023-03-25T07:33:48.573Z,4.57
2023-03-25T07:36:15.776Z,5.20
2023-03-25T07:38:43.010Z,5.90
2023-03-25T07:41:12.257Z,3.65
2023-03-25T07:43:40.439Z,1.70
2023-03-25T07:46:07.813Z,3.72
2023-03-25T07:48:34.962Z,4.47
2023-03-25T07:51:02.055Z,1.85
2023-03-25T07:53:29.055Z,3.58
2023-03-25T07:55:56.272Z,5.35
2023-03-25T07:58:23.468Z,4.22
2023-03-25T08:00:50.597Z,2.20
2023-03-25T08:03:17.869Z,9.77
2023-03-25T08:05:47.362Z,2.40
2023-03-25T08:08:15.099Z,4.47
2023-03-25T08:10:47.474Z,3.45
2023-03-25T08:13:15.118Z,3.15
2023-03-25T08:15:42.422Z,4.75
2023-03-25T08:18:09.540Z,5.53
2023-03-25T08:20:36.814Z,2.35
2023-03-25T08:23:04.450Z,2.90
2023-03-25T08:25:31.977Z,6.70
2023-03-25T08:27:59.183Z,2.97
2023-03-25T08:30:26.324Z,4.55
2023-03-25T08:32:55.207Z,2.72
2023-03-25T08:35:25.530Z,4.05
2023-03-25T08:37:52.838Z,3.90
2023-03-25T08:40:20.199Z,2.08
2023-03-25T08:42:47.729Z,3.15
2023-03-25T08:45:17.612Z,1.15
2023-03-25T08:47:45.944Z,3.25
2023-03-25T08:50:13.480Z,2.05
2023-03-25T08:52:42.426Z,1.95
2023-03-25T08:55:12.336Z,5.40
2023-03-25T08:57:40.868Z,3.05
2023-03-25T09:00:14.819Z,1.52
2023-03-25T09:02:42.870Z,1.63
2023-03-25T09:05:12.149Z,1.98
2023-03-25T09:07:40.145Z,3.78
2023-03-25T09:10:08.358Z,4.47
2023-03-25T09:12:35.679Z,2.38
2023-03-25T09:15:03.648Z,2.67
2023-03-25T09:17:30.885Z,4.43
2023-03-25T09:19:58.934Z,6.95
2023-03-25T09:22:26.266Z,6.10
2023-03-25T09:24:53.547Z,5.47
2023-03-25T09:27:20.665Z,6.05
2023-03-25T09:29:47.755Z,4.28
2023-03-25T09:32:15.202Z,6.30
2023-03-25T09:34:42.836Z,3.92
2023-03-25T09:37:10.732Z,5.50
2023-03-25T09:39:37.798Z,4.20
2023-03-25T09:42:15.620Z,5.70
2023-03-25T09:44:58.493Z,4.38
2023-03-25T09:47:29.884Z,8.63
2023-03-25T09:50:01.206Z,7.50
2023-03-25T09:52:34.932Z,3.22
2023-03-25T09:55:11.958Z,7.78
2023-03-25T09:57:50.873Z,2.55
2023-03-25T10:00:24.282Z,3.97
2023-03-25T10:03:24.701Z,4.28
2023-03-25T10:06:03.748Z,5.28
2023-03-25T10:08:52.343Z,5.93
2023-03-25T10:11:42.641Z,8.50
2023-03-25T10:14:21.796Z,5.50
2023-03-25T10:16:51.749Z,6.93
2023-03-25T10:19:51.293Z,6.07
2023-03-25T10:22:56.849Z,6.35
2023-03-25T10:25:28.655Z,6.40
2023-03-25T10:27:58.480Z,2.03
2023-03-25T10:30:27.180Z,8.05
2023-03-25T10:33:02.262Z,4.93
2023-03-25T10:35:43.156Z,9.50
2023-03-25T10:38:18.910Z,5.65
2023-03-25T10:40:50.628Z,8.23
2023-03-25T10:43:23.806Z,8.13
2023-03-25T10:45:55.498Z,5.85
2023-03-25T10:48:28.783Z,5.03
2023-03-25T10:51:11.042Z,3.50
2023-03-25T10:53:39.596Z,9.60
2023-03-25T10:56:08.746Z,3.45
2023-03-25T10:58:39.719Z,7.00
2023-03-25T11:01:18.539Z,12.77
2023-03-25T11:03:51.081Z,9.82
2023-03-25T11:06:42.778Z,7.45
2023-03-25T11:09:17.143Z,7.72
2023-03-25T11:11:44.904Z,9.15
2023-03-25T11:14:12.770Z,10.38
2023-03-25T11:16:55.916Z,4.78
2023-03-25T11:19:31.107Z,6.20
2023-03-25T11:22:02.995Z,7.45
2023-03-25T11:24:54.742Z,5.43
2023-03-25T11:27:28.677Z,7.22
2023-03-25T11:30:07.568Z,5.18
2023-03-25T11:32:37.326Z,8.00
2023-03-25T11:35:16.409Z,5.28
2023-03-25T11:37:53.981Z,7.68
2023-03-25T11:40:21.313Z,6.55
2023-03-25T11:42:58.835Z,8.57
2023-03-25T11:45:46.115Z,7.70
2023-03-25T11:48:19.348Z,4.75
2023-03-25T11:50:56.502Z,9.82
2023-03-25T11:53:27.343Z,8.93
2023-03-25T11:56:04.793Z,7.88
2023-03-25T11:58:36.246Z,4.75
2023-03-25T12:01:18.045Z,6.50
2023-03-25T12:03:45.935Z,3.63
2023-03-25T12:06:13.151Z,3.78
2023-03-25T12:09:00.852Z,4.63
2023-03-25T12:11:45.388Z,4.63
2023-03-25T12:16:48.426Z,6.10
2023-03-25T12:19:34.611Z,5.65
2023-03-25T12:22:22.467Z,5.03
2023-03-25T12:25:15.248Z,3.95
2023-03-25T12:28:13.087Z,7.63
2023-03-25T12:30:55.708Z,7.35
2023-03-25T12:33:39.217Z,3.15
2023-03-25T12:36:32.242Z,4.05
2023-03-25T12:39:43.519Z,4.03
2023-03-25T12:42:33.787Z,5.63
2023-03-25T12:45:19.420Z,4.82
2023-03-25T12:48:27.125Z,5.50
2023-03-25T12:51:31.843Z,5.65
2023-03-25T12:54:01.628Z,4.90
2023-03-25T12:56:43.638Z,4.45
2023-03-25T12:59:38.331Z,7.70
2023-03-25T13:02:34.731Z,6.72
2023-03-25T13:05:06.859Z,4.13
2023-03-25T13:07:41.021Z,5.22
2023-03-25T13:12:56.573Z,6.95
2023-03-25T13:15:31.108Z,7.53
2023-03-25T13:18:13.096Z,2.45
2023-03-25T13:20:45.505Z,6.90
2023-03-25T13:23:22.150Z,8.10
2023-03-25T13:25:57.016Z,6.45
2023-03-25T13:28:38.898Z,6.25
2023-03-25T13:31:21.162Z,9.88
2023-03-25T13:34:02.277Z,6.85
2023-03-25T13:36:37.753Z,7.50
2023-03-25T13:39:33.383Z,6.07
2023-03-25T13:42:14.116Z,4.75
2023-03-25T13:44:45.528Z,3.17
2023-03-25T13:47:48.188Z,8.27
2023-03-25T13:50:27.399Z,5.20
2023-03-25T13:53:06.104Z,9.60
2023-03-25T13:55:38.178Z,6.38
2023-03-25T13:58:31.967Z,3.92
2023-03-25T14:01:02.279Z,9.00
2023-03-25T14:03:41.383Z,5.25
2023-03-25T14:06:20.693Z,5.95
2023-03-25T14:09:25.762Z,6.15
2023-03-25T14:12:04.111Z,6.65
2023-03-25T14:14:38.179Z,5.05
2023-03-25T14:17:08.065Z,6.88
2023-03-25T14:19:38.657Z,6.22
2023-03-25T14:22:16.665Z,4.35
2023-03-25T14:24:45.283Z,6.93
2023-03-25T14:27:29.964Z,8.25
2023-03-25T14:30:03.037Z,7.97
2023-03-25T14:32:38.407Z,5.38
2023-03-25T14:35:32.032Z,3.65
2023-03-25T14:38:08.618Z,4.07
2023-03-25T14:43:40.605Z,7.65
2023-03-25T14:46:14.662Z,4.45
2023-03-25T14:48:48.057Z,7.65
2023-03-25T14:51:43.572Z,2.77
2023-03-25T14:54:33.697Z,5.65
2023-03-25T14:57:06.218Z,5.80
2023-03-25T14:59:39.686Z,5.05
2023-03-25T15:02:15.366Z,4.93
2023-03-25T15:04:43.962Z,8.95
2023-03-25T15:07:20.110Z,6.18
2023-03-25T15:09:54.171Z,7.03
2023-03-25T15:12:25.643Z,8.00
2023-03-25T15:15:04.359Z,7.28
2023-03-25T15:17:46.821Z,9.70
2023-03-25T15:20:22.871Z,5.38
2023-03-25T15:23:27.059Z,6.03
2023-03-25T15:25:56.004Z,4.32
2023-03-25T15:28:23.061Z,6.35
2023-03-25T15:31:08.466Z,3.75
2023-03-25T15:33:44.344Z,8.48
2023-03-25T15:36:11.525Z,4.88
2023-03-25T15:38:45.339Z,8.00
2023-03-25T15:41:31.022Z,8.90
2023-03-25T15:44:20.050Z,6.18
2023-03-25T15:47:06.093Z,7.50
2023-03-25T15:49:59.301Z,5.28
2023-03-25T15:52:39.924Z,7.47
2023-03-25T15:55:33.890Z,8.75
2023-03-25T15:58:15.440Z,6.83
2023-03-25T16:00:47.381Z,4.30
2023-03-25T16:03:19.931Z,5.57
2023-03-25T16:05:58.573Z,6.88
2023-03-25T16:08:43.505Z,8.80
2023-03-25T16:11:19.600Z,8.00
2023-03-25T16:13:47.766Z,10.88
2023-03-25T16:16:17.619Z,5.70
2023-03-25T16:18:48.233Z,9.82
2023-03-25T16:21:15.704Z,5.40
2023-03-25T16:23:45.533Z,13.63
2023-03-25T16:26:16.180Z,4.82
2023-03-25T16:28:43.410Z,9.15
2023-03-25T16:31:34.908Z,6.07
2023-03-25T16:34:02.264Z,6.35
2023-03-25T16:36:29.712Z,7.90
2023-03-25T16:38:58.227Z,6.50
2023-03-25T16:41:26.184Z,4.15
2023-03-25T16:43:55.219Z,10.93
2023-03-25T16:46:23.759Z,9.68
2023-03-25T16:48:53.850Z,6.93
2023-03-25T16:51:35.471Z,6.68
2023-03-25T16:54:09.570Z,9.25
2023-03-25T16:56:39.852Z,14.80
2023-03-25T16:59:08.312Z,8.98
2023-03-25T17:01:42.873Z,8.70
2023-03-25T17:04:22.749Z,11.15
2023-03-25T17:06:54.719Z,7.78
2023-03-25T17:09:25.842Z,6.78
2023-03-25T17:11:57.596Z,8.60
2023-03-25T17:14:31.453Z,6.07
2023-03-25T17:17:05.139Z,9.55
2023-03-25T17:19:32.696Z,8.07
2023-03-25T17:22:16.716Z,5.20
2023-03-25T17:24:56.685Z,5.00
2023-03-25T17:27:37.249Z,6.60
2023-03-25T17:30:44.918Z,6.03
2023-03-25T17:33:39.309Z,2.20
2023-03-25T17:36:11.693Z,6.57
2023-03-25T17:38:45.196Z,4.10
2023-03-25T17:41:15.109Z,8.98
2023-03-25T17:43:54.791Z,4.55
2023-03-25T17:46:25.750Z,8.43
2023-03-25T17:48:55.490Z,10.13
2023-03-25T17:51:23.324Z,11.77
2023-03-25T17:53:50.523Z,8.50
2023-03-25T17:56:24.548Z,6.68
2023-03-25T17:59:03.219Z,7.75
2023-03-25T18:01:31.662Z,3.83
2023-03-25T18:03:58.824Z,6.05
2023-03-25T18:06:26.168Z,7.63
2023-03-25T18:08:53.575Z,10.05
2023-03-25T18:11:21.323Z,4.60
2023-03-25T18:13:48.991Z,6.97
2023-03-25T18:16:18.334Z,6.55
2023-03-25T18:18:46.295Z,5.32
2023-03-25T18:21:15.852Z,4.20
2023-03-25T18:23:48.199Z,6.35
2023-03-25T18:26:19.343Z,4.05
2023-03-25T18:28:47.148Z,2.90
2023-03-25T18:31:17.710Z,5.25
2023-03-25T18:33:48.694Z,3.65
2023-03-25T18:36:16.563Z,2.40
2023-03-25T18:38:44.164Z,4.32
2023-03-25T18:41:16.462Z,4.35
2023-03-25T18:43:44.317Z,6.57
2023-03-25T18:46:13.322Z,5.05
2023-03-25T18:48:40.973Z,4.88
2023-03-25T18:51:10.970Z,4.45
2023-03-25T18:53:38.086Z,8.30
2023-03-25T18:56:06.101Z,6.85
2023-03-25T18:58:35.106Z,5.53
2023-03-25T19:01:05.189Z,3.42
2023-03-25T19:03:39.002Z,4.63
2023-03-25T19:08:37.108Z,10.60
2023-03-25T19:11:18.776Z,2.63
2023-03-25T19:13:47.955Z,2.53
2023-03-25T19:16:15.254Z,3.83
2023-03-25T19:18:42.349Z,3.58
2023-03-25T19:21:14.675Z,4.70
2023-03-25T19:23:43.112Z,10.52
2023-03-25T19:26:10.385Z,3.15
2023-03-25T19:28:37.545Z,5.10
2023-03-25T19:31:06.416Z,3.33
2023-03-25T19:33:33.615Z,3.10
2023-03-25T19:36:04.653Z,7.70
2023-03-25T19:38:33.145Z,7.65
2023-03-25T19:41:11.951Z,4.93
2023-03-25T19:43:39.607Z,6.90
2023-03-25T19:46:07.337Z,9.63
2023-03-25T19:48:37.406Z,11.70
2023-03-25T19:51:07.283Z,8.55
2023-03-25T19:53:34.847Z,9.90
2023-03-25T19:56:03.783Z,5.63
2023-03-25T19:58:30.926Z,10.20
2023-03-25T20:00:58.085Z,13.05
2023-03-25T20:03:26.723Z,7.65
2023-03-25T20:05:58.202Z,9.82
2023-03-25T20:08:26.305Z,12.15
2023-03-25T20:10:54.194Z,17.00
2023-03-25T20:13:21.644Z,8.63
2023-03-25T20:15:53.177Z,8.18
2023-03-25T20:18:20.753Z,7.03
2023-03-25T20:20:49.299Z,8.68
2023-03-25T20:23:16.450Z,7.72
2023-03-25T20:25:45.261Z,11.90
2023-03-25T20:28:12.568Z,11.80
2023-03-25T20:30:39.900Z,8.80
2023-03-25T20:33:07.141Z,12.57
2023-03-25T20:35:35.183Z,9.32
2023-03-25T20:38:02.483Z,12.95
2023-03-25T20:40:37.821Z,12.05
2023-03-25T20:43:14.336Z,9.13
2023-03-25T20:45:42.620Z,11.77
2023-03-25T20:48:10.016Z,14.55
2023-03-25T20:50:37.497Z,14.23
2023-03-25T20:53:05.949Z,10.88
2023-03-25T20:55:33.176Z,11.57
2023-03-25T20:58:01.219Z,13.82
2023-03-25T21:00:28.623Z,12.50
2023-03-25T21:02:56.680Z,10.88
2023-03-25T21:05:24.073Z,11.90
2023-03-25T21:07:51.381Z,10.85
2023-03-25T21:10:20.400Z,12.23
2023-03-25T21:12:49.363Z,13.73
2023-03-25T21:15:16.622Z,12.90
2023-03-25T21:17:44.423Z,12.80
2023-03-25T21:20:16.718Z,14.00
2023-03-25T21:22:44.557Z,10.30
2023-03-25T21:25:14.933Z,23.60
2023-03-25T21:27:45.412Z,12.43
2023-03-25T21:30:16.377Z,18.40
2023-03-25T21:32:44.104Z,19.02
2023-03-25T21:35:11.338Z,17.17
2023-03-25T21:37:39.346Z,14.02
2023-03-25T21:40:13.220Z,15.35
2023-03-25T21:42:41.848Z,11.05
2023-03-25T21:45:11.626Z,12.65
2023-03-25T21:47:39.502Z,13.07
2023-03-25T21:50:11.911Z,16.55
2023-03-25T21:52:47.214Z,14.52
2023-03-25T21:55:17.779Z,11.10
2023-03-25T21:57:45.305Z,15.65
2023-03-25T22:00:16.691Z,16.25
2023-03-25T22:02:45.512Z,10.43
2023-03-25T22:05:14.532Z,8.68
2023-03-25T22:07:42.302Z,16.58
2023-03-25T22:10:11.332Z,13.35
2023-03-25T22:12:38.821Z,9.88
2023-03-25T22:15:06.826Z,10.55
2023-03-25T22:17:33.900Z,13.95
2023-03-25T22:20:02.249Z,13.07
2023-03-25T22:22:30.275Z,18.85
2023-03-25T22:24:57.571Z,17.98
2023-03-25T22:27:24.744Z,10.73
2023-03-25T22:29:52.081Z,15.23
2023-03-25T22:32:19.189Z,13.13
2023-03-25T22:34:46.497Z,17.15
2023-03-25T22:37:13.736Z,14.13
2023-03-25T22:39:40.969Z,10.30
2023-03-25T22:42:08.273Z,12.35
2023-03-25T22:44:35.609Z,16.70
2023-03-25T22:47:03.494Z,14.88
2023-03-25T22:49:31.380Z,13.88
2023-03-25T22:51:58.589Z,10.68
2023-03-25T22:54:25.771Z,17.73
2023-03-25T22:56:53.113Z,10.27
2023-03-25T22:59:20.583Z,8.90
2023-03-25T23:01:47.955Z,13.75
2023-03-25T23:04:15.608Z,14.43
2023-03-25T23:06:44.141Z,14.25
2023-03-25T23:09:36.189Z,9.10
2023-03-25T23:12:03.537Z,6.80
2023-03-25T23:14:30.682Z,16.83
2023-03-25T23:16:57.828Z,15.48
2023-03-25T23:19:25.186Z,14.05
2023-03-25T23:21:52.385Z,12.80
2023-03-25T23:24:19.445Z,8.75
2023-03-25T23:26:47.646Z,15.15
2023-03-25T23:29:15.120Z,10.10
2023-03-25T23:31:43.543Z,11.48
2023-03-25T23:34:14.262Z,11.75
2023-03-25T23:36:41.877Z,12.43
2023-03-25T23:39:13.117Z,12.82
2023-03-25T23:41:40.433Z,10.65
2023-03-25T23:44:08.492Z,13.35
2023-03-25T23:46:36.150Z,16.85
2023-03-25T23:49:03.926Z,11.98
2023-03-25T23:51:35.119Z,8.85
2023-03-25T23:54:03.056Z,14.65
2023-03-25T23:56:31.051Z,14.95
2023-03-25T23:59:00.121Z,10.32
